sensor_id;sensor_type;location;lat;lon;timestamp;pressure;altitude;pressure_sealevel;temperature;humidity
75852;BME280;64500;52.632;20.656;2023-02-28T00:00:13;101930.55;;;10.23;75.77
75852;BME280;64500;52.632;20.656;2023-02-28T00:02:59;101932.48;;;10.23;75.74
75852;BME280;64500;52.632;20.656;2023-02-28T00:05:27;101930.55;;;10.22;75.82
75852;BME280;64500;52.632;20.656;2023-02-28T00:07:54;101933.73;;;10.21;75.85
75852;BME280;64500;52.632;20.656;2023-02-28T00:10:24;101933.73;;;10.21;75.79
75852;BME280;64500;52.632;20.656;2023-02-28T00:12:51;101936.39;;;10.21;75.76
75852;BME280;64500;52.632;20.656;2023-02-28T00:15:18;101938.50;;;10.21;75.92
75852;BME280;64500;52.632;20.656;2023-02-28T00:17:45;101937.98;;;10.20;75.72
75852;BME280;64500;52.632;20.656;2023-02-28T00:20:12;101941.16;;;10.20;75.76
75852;BME280;64500;52.632;20.656;2023-02-28T00:22:41;101942.22;;;10.21;75.76
75852;BME280;64500;52.632;20.656;2023-02-28T00:25:09;101936.39;;;10.20;75.87
75852;BME280;64500;52.632;20.656;2023-02-28T00:27:37;101937.44;;;10.20;75.85
75852;BME280;64500;52.632;20.656;2023-02-28T00:30:05;101937.08;;;10.20;75.84
75852;BME280;64500;52.632;20.656;2023-02-28T00:32:32;101936.55;;;10.19;75.98
75852;BME280;64500;52.632;20.656;2023-02-28T00:35:00;101940.27;;;10.19;75.77
75852;BME280;64500;52.632;20.656;2023-02-28T00:37:27;101942.56;;;10.19;75.86
75852;BME280;64500;52.632;20.656;2023-02-28T00:39:53;101945.21;;;10.19;75.92
75852;BME280;64500;52.632;20.656;2023-02-28T00:42:19;101946.09;;;10.19;75.85
75852;BME280;64500;52.632;20.656;2023-02-28T00:44:46;101949.81;;;10.19;75.94
75852;BME280;64500;52.632;20.656;2023-02-28T00:47:12;101950.34;;;10.19;75.88
75852;BME280;64500;52.632;20.656;2023-02-28T00:49:39;101948.23;;;10.19;75.84
75852;BME280;64500;52.632;20.656;2023-02-28T00:52:06;101951.23;;;10.19;75.86
75852;BME280;64500;52.632;20.656;2023-02-28T00:54:32;101953.16;;;10.19;75.90
75852;BME280;64500;52.632;20.656;2023-02-28T00:56:59;101952.46;;;10.18;75.91
75852;BME280;64500;52.632;20.656;2023-02-28T00:59:25;101948.41;;;10.18;75.95
75852;BME280;64500;52.632;20.656;2023-02-28T01:01:52;101953.35;;;10.18;75.96
75852;BME280;64500;52.632;20.656;2023-02-28T01:04:18;101954.92;;;10.17;75.97
75852;BME280;64500;52.632;20.656;2023-02-28T01:06:45;101955.98;;;10.17;75.94
75852;BME280;64500;52.632;20.656;2023-02-28T01:09:11;101954.40;;;10.18;76.01
75852;BME280;64500;52.632;20.656;2023-02-28T01:11:38;101958.82;;;10.17;76.08
75852;BME280;64500;52.632;20.656;2023-02-28T01:14:06;101958.11;;;10.16;75.89
75852;BME280;64500;52.632;20.656;2023-02-28T01:16:33;101957.05;;;10.17;76.10
75852;BME280;64500;52.632;20.656;2023-02-28T01:19:00;101960.22;;;10.17;75.93
75852;BME280;64500;52.632;20.656;2023-02-28T01:21:26;101955.98;;;10.16;76.02
75852;BME280;64500;52.632;20.656;2023-02-28T01:23:56;101960.40;;;10.16;76.14
75852;BME280;64500;52.632;20.656;2023-02-28T01:26:24;101956.52;;;10.16;75.81
75852;BME280;64500;52.632;20.656;2023-02-28T01:28:51;101950.49;;;10.15;75.90
75852;BME280;64500;52.632;20.656;2023-02-28T01:31:19;101945.37;;;10.15;75.98
75852;BME280;64500;52.632;20.656;2023-02-28T01:33:46;101948.38;;;10.15;75.95
75852;BME280;64500;52.632;20.656;2023-02-28T01:36:16;101954.02;;;10.15;75.97
75852;BME280;64500;52.632;20.656;2023-02-28T01:38:43;101949.95;;;10.15;75.89
75852;BME280;64500;52.632;20.656;2023-02-28T01:41:16;101954.02;;;10.15;75.99
75852;BME280;64500;52.632;20.656;2023-02-28T01:46:10;101948.02;;;10.14;76.08
75852;BME280;64500;52.632;20.656;2023-02-28T01:48:43;101950.52;;;10.15;76.29
75852;BME280;64500;52.632;20.656;2023-02-28T01:51:31;101953.16;;;10.16;76.13
75852;BME280;64500;52.632;20.656;2023-02-28T01:54:08;101957.04;;;10.16;76.29
75852;BME280;64500;52.632;20.656;2023-02-28T01:56:45;101955.27;;;10.16;76.12
75852;BME280;64500;52.632;20.656;2023-02-28T01:59:18;101958.28;;;10.15;76.18
75852;BME280;64500;52.632;20.656;2023-02-28T02:01:46;101958.63;;;10.14;76.22
75852;BME280;64500;52.632;20.656;2023-02-28T02:04:12;101954.20;;;10.14;76.09
75852;BME280;64500;52.632;20.656;2023-02-28T02:06:43;101958.45;;;10.15;76.39
75852;BME280;64500;52.632;20.656;2023-02-28T02:09:11;101957.04;;;10.14;76.27
75852;BME280;64500;52.632;20.656;2023-02-28T02:11:40;101956.15;;;10.14;76.20
75852;BME280;64500;52.632;20.656;2023-02-28T02:14:40;101957.04;;;10.14;76.18
75852;BME280;64500;52.632;20.656;2023-02-28T02:17:28;101961.10;;;10.15;76.45
75852;BME280;64500;52.632;20.656;2023-02-28T02:40:46;101962.15;;;10.09;76.42
75852;BME280;64500;52.632;20.656;2023-02-28T02:43:48;101959.34;;;10.10;76.57
75852;BME280;64500;52.632;20.656;2023-02-28T02:46:20;101960.39;;;10.09;76.53
75852;BME280;64500;52.632;20.656;2023-02-28T02:48:50;101960.91;;;10.09;76.50
75852;BME280;64500;52.632;20.656;2023-02-28T02:51:21;101963.02;;;10.09;76.60
75852;BME280;64500;52.632;20.656;2023-02-28T02:53:53;101964.45;;;10.10;76.70
75852;BME280;64500;52.632;20.656;2023-02-28T02:56:25;101961.63;;;10.10;76.47
75852;BME280;64500;52.632;20.656;2023-02-28T02:58:57;101955.98;;;10.10;76.56
75852;BME280;64500;52.632;20.656;2023-02-28T03:01:26;101953.85;;;10.11;76.47
75852;BME280;64500;52.632;20.656;2023-02-28T03:04:01;101954.73;;;10.11;76.64
75852;BME280;64500;52.632;20.656;2023-02-28T03:06:29;101955.44;;;10.11;76.61
75852;BME280;64500;52.632;20.656;2023-02-28T03:08:55;101957.21;;;10.11;76.56
75852;BME280;64500;52.632;20.656;2023-02-28T03:11:22;101956.15;;;10.11;76.63
75852;BME280;64500;52.632;20.656;2023-02-28T03:14:21;101952.27;;;10.12;76.54
75852;BME280;64500;52.632;20.656;2023-02-28T03:16:59;101955.79;;;10.12;76.75
75852;BME280;64500;52.632;20.656;2023-02-28T03:22:15;101952.25;;;10.08;76.62
75852;BME280;64500;52.632;20.656;2023-02-28T03:24:49;101954.38;;;10.08;76.71
75852;BME280;64500;52.632;20.656;2023-02-28T03:27:27;101956.13;;;10.08;76.69
75852;BME280;64500;52.632;20.656;2023-02-28T03:30:03;101952.60;;;10.08;76.53
75852;BME280;64500;52.632;20.656;2023-02-28T03:32:40;101955.08;;;10.08;76.66
75852;BME280;64500;52.632;20.656;2023-02-28T03:35:12;101960.39;;;10.09;76.60
75852;BME280;64500;52.632;20.656;2023-02-28T03:37:43;101967.63;;;10.09;76.67
75852;BME280;64500;52.632;20.656;2023-02-28T03:40:17;101963.56;;;10.09;76.62
75852;BME280;64500;52.632;20.656;2023-02-28T03:42:50;101963.58;;;10.10;76.77
75852;BME280;64500;52.632;20.656;2023-02-28T03:45:26;101965.86;;;10.12;76.83
75852;BME280;64500;52.632;20.656;2023-02-28T03:50:43;101967.98;;;10.14;76.69
75852;BME280;64500;52.632;20.656;2023-02-28T03:53:15;101972.95;;;10.13;76.61
75852;BME280;64500;52.632;20.656;2023-02-28T03:55:49;101975.05;;;10.13;76.67
75852;BME280;64500;52.632;20.656;2023-02-28T03:58:27;101970.99;;;10.13;76.73
75852;BME280;64500;52.632;20.656;2023-02-28T04:01:07;101974.17;;;10.16;76.76
75852;BME280;64500;52.632;20.656;2023-02-28T04:03:37;101972.24;;;10.16;76.91
75852;BME280;64500;52.632;20.656;2023-02-28T04:06:07;101972.59;;;10.16;76.84
75852;BME280;64500;52.632;20.656;2023-02-28T04:08:36;101971.36;;;10.16;76.88
75852;BME280;64500;52.632;20.656;2023-02-28T04:11:20;101970.30;;;10.16;76.76
75852;BME280;64500;52.632;20.656;2023-02-28T04:13:48;101974.19;;;10.16;76.63
75852;BME280;64500;52.632;20.656;2023-02-28T04:16:16;101974.00;;;10.15;76.46
75852;BME280;64500;52.632;20.656;2023-02-28T04:18:43;101976.66;;;10.16;76.90
75852;BME280;64500;52.632;20.656;2023-02-28T04:21:11;101974.35;;;10.17;76.79
75852;BME280;64500;52.632;20.656;2023-02-28T04:23:40;101974.02;;;10.17;76.86
75852;BME280;64500;52.632;20.656;2023-02-28T04:26:07;101975.25;;;10.18;76.80
75852;BME280;64500;52.632;20.656;2023-02-28T04:28:34;101974.72;;;10.18;76.73
75852;BME280;64500;52.632;20.656;2023-02-28T04:31:02;101976.48;;;10.18;77.02
75852;BME280;64500;52.632;20.656;2023-02-28T04:33:32;101977.73;;;10.19;76.81
75852;BME280;64500;52.632;20.656;2023-02-28T04:36:05;101979.14;;;10.18;76.71
75852;BME280;64500;52.632;20.656;2023-02-28T04:38:36;101980.20;;;10.18;76.81
75852;BME280;64500;52.632;20.656;2023-02-28T04:41:04;101979.13;;;10.17;76.74
75852;BME280;64500;52.632;20.656;2023-02-28T04:43:32;101981.98;;;10.17;76.83
75852;BME280;64500;52.632;20.656;2023-02-28T04:46:02;101985.15;;;10.18;76.74
75852;BME280;64500;52.632;20.656;2023-02-28T04:48:32;101986.73;;;10.17;76.86
75852;BME280;64500;52.632;20.656;2023-02-28T04:51:07;101986.75;;;10.18;76.85
75852;BME280;64500;52.632;20.656;2023-02-28T04:53:35;101985.34;;;10.18;76.86
75852;BME280;64500;52.632;20.656;2023-02-28T04:56:04;101990.45;;;10.18;76.96
75852;BME280;64500;52.632;20.656;2023-02-28T04:58:30;101994.50;;;10.18;76.87
75852;BME280;64500;52.632;20.656;2023-02-28T05:01:06;101998.23;;;10.18;76.86
75852;BME280;64500;52.632;20.656;2023-02-28T05:03:42;101999.64;;;10.18;76.94
75852;BME280;64500;52.632;20.656;2023-02-28T05:06:11;101999.64;;;10.19;76.92
75852;BME280;64500;52.632;20.656;2023-02-28T05:08:39;102004.92;;;10.20;76.99
75852;BME280;64500;52.632;20.656;2023-02-28T05:11:19;102004.41;;;10.19;76.88
75852;BME280;64500;52.632;20.656;2023-02-28T05:13:47;102000.34;;;10.20;76.93
75852;BME280;64500;52.632;20.656;2023-02-28T05:16:15;102003.52;;;10.19;76.94
75852;BME280;64500;52.632;20.656;2023-02-28T05:18:41;102004.23;;;10.20;76.85
75852;BME280;64500;52.632;20.656;2023-02-28T05:21:25;102005.99;;;10.19;76.92
75852;BME280;64500;52.632;20.656;2023-02-28T05:23:52;102006.54;;;10.19;76.83
75852;BME280;64500;52.632;20.656;2023-02-28T05:26:19;102011.48;;;10.19;76.86
75852;BME280;64500;52.632;20.656;2023-02-28T05:28:45;102012.54;;;10.19;76.92
75852;BME280;64500;52.632;20.656;2023-02-28T05:31:13;102015.36;;;10.20;76.91
75852;BME280;64500;52.632;20.656;2023-02-28T05:33:39;102022.08;;;10.19;76.70
75852;BME280;64500;52.632;20.656;2023-02-28T05:36:08;102022.78;;;10.19;76.86
75852;BME280;64500;52.632;20.656;2023-02-28T05:38:35;102025.44;;;10.19;76.87
75852;BME280;64500;52.632;20.656;2023-02-28T05:41:05;102025.96;;;10.19;76.81
75852;BME280;64500;52.632;20.656;2023-02-28T05:43:32;102024.91;;;10.19;76.83
75852;BME280;64500;52.632;20.656;2023-02-28T05:46:02;102022.44;;;10.18;76.89
75852;BME280;64500;52.632;20.656;2023-02-28T05:48:28;102022.45;;;10.18;76.78
75852;BME280;64500;52.632;20.656;2023-02-28T05:50:57;102023.67;;;10.18;76.87
75852;BME280;64500;52.632;20.656;2023-02-28T05:53:24;102025.61;;;10.19;76.94
75852;BME280;64500;52.632;20.656;2023-02-28T05:55:50;102027.73;;;10.19;76.89
75852;BME280;64500;52.632;20.656;2023-02-28T05:58:17;102030.38;;;10.20;76.96
75852;BME280;64500;52.632;20.656;2023-02-28T06:00:43;102031.10;;;10.21;76.85
75852;BME280;64500;52.632;20.656;2023-02-28T06:03:09;102032.52;;;10.21;76.87
75852;BME280;64500;52.632;20.656;2023-02-28T06:05:36;102036.23;;;10.22;76.67
75852;BME280;64500;52.632;20.656;2023-02-28T06:08:03;102040.64;;;10.22;76.91
75852;BME280;64500;52.632;20.656;2023-02-28T06:10:29;102045.59;;;10.22;76.72
75852;BME280;64500;52.632;20.656;2023-02-28T06:13:00;102048.78;;;10.21;76.87
75852;BME280;64500;52.632;20.656;2023-02-28T06:15:29;102052.30;;;10.22;76.96
75852;BME280;64500;52.632;20.656;2023-02-28T06:17:56;102048.24;;;10.22;76.76
75852;BME280;64500;52.632;20.656;2023-02-28T06:20:26;102052.83;;;10.23;76.73
75852;BME280;64500;52.632;20.656;2023-02-28T06:22:58;102048.41;;;10.23;76.65
75852;BME280;64500;52.632;20.656;2023-02-28T06:25:26;102043.30;;;10.23;76.77
75852;BME280;64500;52.632;20.656;2023-02-28T06:27:54;102039.75;;;10.23;76.89
75852;BME280;64500;52.632;20.656;2023-02-28T06:30:23;102036.74;;;10.23;77.04
75852;BME280;64500;52.632;20.656;2023-02-28T06:32:53;102036.59;;;10.23;76.76
75852;BME280;64500;52.632;20.656;2023-02-28T06:35:20;102042.42;;;10.24;76.95
75852;BME280;64500;52.632;20.656;2023-02-28T06:37:46;102048.79;;;10.25;76.75
75852;BME280;64500;52.632;20.656;2023-02-28T06:40:14;102046.52;;;10.26;76.92
75852;BME280;64500;52.632;20.656;2023-02-28T06:42:41;102048.63;;;10.27;76.86
75852;BME280;64500;52.632;20.656;2023-02-28T06:45:09;102052.36;;;10.28;76.92
75852;BME280;64500;52.632;20.656;2023-02-28T06:47:44;102047.78;;;10.31;77.33
75852;BME280;64500;52.632;20.656;2023-02-28T06:50:13;102046.05;;;10.42;77.87
75852;BME280;64500;52.632;20.656;2023-02-28T06:52:41;102042.56;;;10.60;78.49
75852;BME280;64500;52.632;20.656;2023-02-28T06:55:14;102039.77;;;10.85;79.25
75852;BME280;64500;52.632;20.656;2023-02-28T06:57:42;102037.30;;;11.10;79.67
75852;BME280;64500;52.632;20.656;2023-02-28T07:00:10;102033.04;;;11.34;80.01
75852;BME280;64500;52.632;20.656;2023-02-28T07:02:37;102031.41;;;11.60;80.32
75852;BME280;64500;52.632;20.656;2023-02-28T07:05:05;102030.30;;;11.83;80.44
75852;BME280;64500;52.632;20.656;2023-02-28T07:07:33;102031.52;;;11.95;79.33
75852;BME280;64500;52.632;20.656;2023-02-28T07:10:02;102029.23;;;11.90;78.26
75852;BME280;64500;52.632;20.656;2023-02-28T07:12:29;102024.10;;;11.83;77.45
75852;BME280;64500;52.632;20.656;2023-02-28T07:14:56;102019.51;;;11.76;77.14
75852;BME280;64500;52.632;20.656;2023-02-28T07:17:23;102022.00;;;11.70;76.94
75852;BME280;64500;52.632;20.656;2023-02-28T07:19:49;102019.70;;;11.68;76.84
75852;BME280;64500;52.632;20.656;2023-02-28T07:22:16;102015.63;;;11.66;76.73
75852;BME280;64500;52.632;20.656;2023-02-28T07:24:43;102015.99;;;11.64;76.72
75852;BME280;64500;52.632;20.656;2023-02-28T07:27:10;102009.45;;;11.62;76.44
75852;BME280;64500;52.632;20.656;2023-02-28T07:29:36;102006.09;;;11.58;76.22
75852;BME280;64500;52.632;20.656;2023-02-28T07:32:04;102002.92;;;11.52;75.96
75852;BME280;64500;52.632;20.656;2023-02-28T07:34:31;102002.75;;;11.48;75.87
75852;BME280;64500;52.632;20.656;2023-02-28T07:36:58;102003.48;;;11.44;75.59
75852;BME280;64500;52.632;20.656;2023-02-28T07:39:26;102004.02;;;11.36;75.13
75852;BME280;64500;52.632;20.656;2023-02-28T07:41:52;102006.31;;;11.29;75.09
75852;BME280;64500;52.632;20.656;2023-02-28T07:44:19;102006.68;;;11.25;74.65
75852;BME280;64500;52.632;20.656;2023-02-28T07:46:45;102010.41;;;11.18;74.20
75852;BME280;64500;52.632;20.656;2023-02-28T07:49:11;102006.69;;;11.09;73.37
75852;BME280;64500;52.632;20.656;2023-02-28T07:51:38;102012.17;;;11.03;73.17
75852;BME280;64500;52.632;20.656;2023-02-28T07:54:04;102014.30;;;10.97;72.79
75852;BME280;64500;52.632;20.656;2023-02-28T07:56:30;102015.89;;;10.88;72.14
75852;BME280;64500;52.632;20.656;2023-02-28T07:58:57;102018.00;;;10.79;71.93
75852;BME280;64500;52.632;20.656;2023-02-28T08:01:23;102022.77;;;10.70;71.64
75852;BME280;64500;52.632;20.656;2023-02-28T08:03:49;102023.98;;;10.59;71.57
75852;BME280;64500;52.632;20.656;2023-02-28T08:06:19;102024.52;;;10.50;71.50
75852;BME280;64500;52.632;20.656;2023-02-28T08:08:47;102026.80;;;10.44;71.48
75852;BME280;64500;52.632;20.656;2023-02-28T08:11:14;102026.95;;;10.41;71.56
75852;BME280;64500;52.632;20.656;2023-02-28T08:13:42;102025.00;;;10.41;71.65
75852;BME280;64500;52.632;20.656;2023-02-28T08:16:10;102027.48;;;10.40;71.58
75852;BME280;64500;52.632;20.656;2023-02-28T08:18:37;102025.18;;;10.35;71.36
75852;BME280;64500;52.632;20.656;2023-02-28T08:21:08;102027.27;;;10.31;71.39
75852;BME280;64500;52.632;20.656;2023-02-28T08:23:34;102027.77;;;10.26;71.27
75852;BME280;64500;52.632;20.656;2023-02-28T08:26:02;102023.51;;;10.22;71.41
75852;BME280;64500;52.632;20.656;2023-02-28T08:28:29;102028.80;;;10.22;71.85
75852;BME280;64500;52.632;20.656;2023-02-28T08:30:56;102025.61;;;10.20;71.57
75852;BME280;64500;52.632;20.656;2023-02-28T08:33:23;102027.89;;;10.14;71.26
75852;BME280;64500;52.632;20.656;2023-02-28T08:35:55;102032.83;;;10.10;71.23
75852;BME280;64500;52.632;20.656;2023-02-28T08:38:22;102034.23;;;10.09;71.78
75852;BME280;64500;52.632;20.656;2023-02-28T08:40:49;102032.83;;;10.10;71.99
75852;BME280;64500;52.632;20.656;2023-02-28T08:43:15;102030.89;;;10.09;71.62
75852;BME280;64500;52.632;20.656;2023-02-28T08:45:42;102026.80;;;10.06;71.64
75852;BME280;64500;52.632;20.656;2023-02-28T08:48:08;102031.21;;;10.06;71.87
75852;BME280;64500;52.632;20.656;2023-02-28T08:50:34;102035.98;;;10.06;72.17
75852;BME280;64500;52.632;20.656;2023-02-28T08:53:00;102033.86;;;10.04;71.72
75852;BME280;64500;52.632;20.656;2023-02-28T08:55:27;102037.02;;;10.01;71.41
75852;BME280;64500;52.632;20.656;2023-02-28T08:57:53;102037.89;;;9.98;71.53
75852;BME280;64500;52.632;20.656;2023-02-28T09:00:22;102038.58;;;9.96;71.74
75852;BME280;64500;52.632;20.656;2023-02-28T09:02:49;102037.01;;;9.95;71.43
75852;BME280;64500;52.632;20.656;2023-02-28T09:05:15;102040.15;;;9.89;71.02
75852;BME280;64500;52.632;20.656;2023-02-28T09:07:41;102041.38;;;9.86;71.55
75852;BME280;64500;52.632;20.656;2023-02-28T09:10:09;102039.35;;;10.08;73.18
75852;BME280;64500;52.632;20.656;2023-02-28T09:12:35;102040.73;;;10.39;73.53
75852;BME280;64500;52.632;20.656;2023-02-28T09:15:02;102042.77;;;10.75;74.39
75852;BME280;64500;52.632;20.656;2023-02-28T09:17:29;102040.85;;;11.03;73.05
75852;BME280;64500;52.632;20.656;2023-02-28T09:19:55;102037.84;;;11.12;71.91
75852;BME280;64500;52.632;20.656;2023-02-28T09:22:21;102034.83;;;11.18;71.43
75852;BME280;64500;52.632;20.656;2023-02-28T09:24:47;102036.95;;;11.26;70.51
75852;BME280;64500;52.632;20.656;2023-02-28T09:27:14;102043.48;;;11.20;69.07
75852;BME280;64500;52.632;20.656;2023-02-28T09:29:40;102036.60;;;11.12;68.88
75852;BME280;64500;52.632;20.656;2023-02-28T09:32:07;102033.59;;;11.13;69.05
75852;BME280;64500;52.632;20.656;2023-02-28T09:34:33;102032.34;;;11.25;69.43
75852;BME280;64500;52.632;20.656;2023-02-28T09:37:00;102031.97;;;11.38;69.37
75852;BME280;64500;52.632;20.656;2023-02-28T09:39:26;102031.27;;;11.45;68.89
75852;BME280;64500;52.632;20.656;2023-02-28T09:41:54;102035.51;;;11.45;67.86
75852;BME280;64500;52.632;20.656;2023-02-28T09:44:35;102036.77;;;11.37;68.01
75852;BME280;64500;52.632;20.656;2023-02-28T09:47:39;102037.48;;;11.38;68.23
75852;BME280;64500;52.632;20.656;2023-02-28T09:50:38;102042.77;;;11.38;68.45
75852;BME280;64500;52.632;20.656;2023-02-28T09:53:19;102041.02;;;11.36;68.76
75852;BME280;64500;52.632;20.656;2023-02-28T09:55:50;102044.02;;;11.34;68.89
75852;BME280;64500;52.632;20.656;2023-02-28T09:58:28;102047.02;;;11.31;69.03
75852;BME280;64500;52.632;20.656;2023-02-28T10:01:02;102041.55;;;11.30;69.07
75852;BME280;64500;52.632;20.656;2023-02-28T10:03:40;102042.09;;;11.30;69.40
75852;BME280;64500;52.632;20.656;2023-02-28T10:06:15;102038.17;;;11.32;69.63
75852;BME280;64500;52.632;20.656;2023-02-28T10:11:16;102033.94;;;11.35;70.05
75852;BME280;64500;52.632;20.656;2023-02-28T10:14:02;102034.45;;;11.39;70.46
75852;BME280;64500;52.632;20.656;2023-02-28T10:16:39;102030.73;;;11.42;70.68
75852;BME280;64500;52.632;20.656;2023-02-28T10:19:33;102029.86;;;11.43;70.79
75852;BME280;64500;52.632;20.656;2023-02-28T10:24:43;102021.34;;;11.47;71.29
75852;BME280;64500;52.632;20.656;2023-02-28T10:27:24;102020.10;;;11.51;71.58
75852;BME280;64500;52.632;20.656;2023-02-28T10:29:53;102017.79;;;11.54;71.64
75852;BME280;64500;52.632;20.656;2023-02-28T10:32:32;102017.42;;;11.58;71.87
75852;BME280;64500;52.632;20.656;2023-02-28T10:35:20;102012.81;;;11.59;71.73
75852;BME280;64500;52.632;20.656;2023-02-28T10:37:50;102010.35;;;11.56;71.60
75852;BME280;64500;52.632;20.656;2023-02-28T10:45:29;101998.79;;;13.20;78.51
75852;BME280;64500;52.632;20.656;2023-02-28T10:48:05;101992.04;;;14.02;79.48
75852;BME280;64500;52.632;20.656;2023-02-28T10:50:39;101991.98;;;14.71;78.58
75852;BME280;64500;52.632;20.656;2023-02-28T10:58:52;101982.53;;;14.73;73.88
75852;BME280;64500;52.632;20.656;2023-02-28T11:01:39;101976.86;;;14.60;73.35
75852;BME280;64500;52.632;20.656;2023-02-28T11:07:21;101971.54;;;14.34;72.99
75852;BME280;64500;52.632;20.656;2023-02-28T11:09:52;101975.94;;;14.24;72.76
75852;BME280;64500;52.632;20.656;2023-02-28T11:12:38;101974.10;;;14.15;72.88
75852;BME280;64500;52.632;20.656;2023-02-28T11:15:28;101969.58;;;14.08;72.96
75852;BME280;64500;52.632;20.656;2023-02-28T11:20:40;101969.70;;;13.99;73.31
75852;BME280;64500;52.632;20.656;2023-02-28T11:23:11;101969.58;;;13.94;73.25
75852;BME280;64500;52.632;20.656;2023-02-28T11:25:38;101968.40;;;13.89;73.02
75852;BME280;64500;52.632;20.656;2023-02-28T11:28:22;101967.19;;;13.86;72.97
75852;BME280;64500;52.632;20.656;2023-02-28T11:31:19;101966.54;;;13.81;72.93
75852;BME280;64500;52.632;20.656;2023-02-28T11:33:53;101971.75;;;13.78;72.82
75852;BME280;64500;52.632;20.656;2023-02-28T11:36:27;101971.79;;;13.74;73.10
75852;BME280;64500;52.632;20.656;2023-02-28T11:38:56;101968.60;;;13.72;72.97
75852;BME280;64500;52.632;20.656;2023-02-28T11:50:38;101959.12;;;13.63;73.61
75852;BME280;64500;52.632;20.656;2023-02-28T11:53:22;101953.84;;;13.59;73.46
75852;BME280;64500;52.632;20.656;2023-02-28T12:03:58;101946.55;;;13.44;73.64
75852;BME280;64500;52.632;20.656;2023-02-28T12:06:38;101948.01;;;13.56;75.26
75852;BME280;64500;52.632;20.656;2023-02-28T12:11:48;101938.96;;;15.02;79.12
75852;BME280;64500;52.632;20.656;2023-02-28T12:28:37;101925.58;;;15.03;74.20
75852;BME280;64500;52.632;20.656;2023-02-28T12:31:14;101918.03;;;14.97;73.95
75852;BME280;64500;52.632;20.656;2023-02-28T12:33:47;101912.30;;;14.89;73.56
75852;BME280;64500;52.632;20.656;2023-02-28T12:36:17;101913.16;;;14.80;73.58
75852;BME280;64500;52.632;20.656;2023-02-28T12:38:58;101914.14;;;14.75;73.74
75852;BME280;64500;52.632;20.656;2023-02-28T12:41:45;101917.46;;;14.68;73.52
75852;BME280;64500;52.632;20.656;2023-02-28T12:44:18;101914.67;;;14.65;73.67
75852;BME280;64500;52.632;20.656;2023-02-28T12:46:53;101910.27;;;14.63;73.92
75852;BME280;64500;52.632;20.656;2023-02-28T12:49:34;101903.17;;;14.61;73.85
75852;BME280;64500;52.632;20.656;2023-02-28T12:52:04;101905.02;;;14.58;73.89
75852;BME280;64500;52.632;20.656;2023-02-28T12:54:44;101901.16;;;14.54;73.82
75852;BME280;64500;52.632;20.656;2023-02-28T13:00:10;101900.55;;;14.45;73.69
75852;BME280;64500;52.632;20.656;2023-02-28T13:05:37;101901.72;;;14.39;73.79
75852;BME280;64500;52.632;20.656;2023-02-28T13:11:07;101896.41;;;14.37;74.08
75852;BME280;64500;52.632;20.656;2023-02-28T13:13:33;101897.86;;;14.36;74.10
75852;BME280;64500;52.632;20.656;2023-02-28T13:16:08;101890.75;;;14.35;74.13
75852;BME280;64500;52.632;20.656;2023-02-28T13:18:45;101887.05;;;14.32;73.57
75852;BME280;64500;52.632;20.656;2023-02-28T13:21:28;101884.84;;;14.27;73.65
75852;BME280;64500;52.632;20.656;2023-02-28T13:23:59;101878.46;;;14.25;74.09
75852;BME280;64500;52.632;20.656;2023-02-28T13:29:27;101875.76;;;14.28;74.41
75852;BME280;64500;52.632;20.656;2023-02-28T13:37:34;101859.41;;;14.26;74.43
75852;BME280;64500;52.632;20.656;2023-02-28T13:40:28;101860.14;;;14.25;74.31
75852;BME280;64500;52.632;20.656;2023-02-28T13:42:56;101856.23;;;14.25;74.34
75852;BME280;64500;52.632;20.656;2023-02-28T13:45:27;101860.52;;;14.24;74.38
75852;BME280;64500;52.632;20.656;2023-02-28T13:48:01;101858.02;;;14.24;74.26
75852;BME280;64500;52.632;20.656;2023-02-28T13:50:37;101852.77;;;14.19;74.40
75852;BME280;64500;52.632;20.656;2023-02-28T13:55:53;101846.30;;;14.13;74.16
75852;BME280;64500;52.632;20.656;2023-02-28T13:58:55;101846.87;;;14.10;74.06
75852;BME280;64500;52.632;20.656;2023-02-28T14:01:51;101841.90;;;14.09;74.18
75852;BME280;64500;52.632;20.656;2023-02-28T14:07:04;101832.48;;;14.08;74.34
75852;BME280;64500;52.632;20.656;2023-02-28T14:09:37;101827.52;;;14.07;74.34
75852;BME280;64500;52.632;20.656;2023-02-28T14:23:56;101815.20;;;14.11;74.73
75852;BME280;64500;52.632;20.656;2023-02-28T14:35:54;101798.95;;;14.15;75.03
75852;BME280;64500;52.632;20.656;2023-02-28T14:38:05;101798.76;;;14.16;74.95
75852;BME280;64500;52.632;20.656;2023-02-28T14:40:34;101801.25;;;14.16;74.92
75852;BME280;64500;52.632;20.656;2023-02-28T14:43:04;101805.29;;;14.30;76.64
75852;BME280;64500;52.632;20.656;2023-02-28T14:45:33;101811.09;;;14.94;79.49
75852;BME280;64500;52.632;20.656;2023-02-28T14:48:09;101816.19;;;15.57;79.24
75852;BME280;64500;52.632;20.656;2023-02-28T14:50:36;101816.86;;;15.84;78.65
75852;BME280;64500;52.632;20.656;2023-02-28T14:53:03;101814.45;;;16.11;78.78
75852;BME280;64500;52.632;20.656;2023-02-28T14:55:35;101816.56;;;16.40;79.07
75852;BME280;64500;52.632;20.656;2023-02-28T14:58:05;101811.93;;;16.74;79.66
75852;BME280;64500;52.632;20.656;2023-02-28T15:00:40;101809.19;;;17.10;79.91
75852;BME280;64500;52.632;20.656;2023-02-28T15:03:34;101814.36;;;17.40;79.76
75852;BME280;64500;52.632;20.656;2023-02-28T15:06:06;101809.41;;;17.68;79.75
75852;BME280;64500;52.632;20.656;2023-02-28T15:08:38;101808.23;;;17.89;79.64